PWSweather.com
Personal Weather Stations
Station Observations
COONRAPIDS
Minneapolis, MN 55433

Minneapolis, MN 55433

Lat: 45.187721, Lon: -93.36828

Elevation: 898

Station Type: Davis Vantage Pro 2

Latest ConditionsUpdated 8:00:04 AM CDT Tuesday, Aug 30, 2016
Currently Today's Max Today's Min Today's Average
Temperature 66.0°F18.9°C 67.0°F19.4°C 65.4°F18.6°C 66.2°F19.0°C
Dew Point 63.3°F17.4°C 63.6°F17.6°C 62.4°F16.9°C 63.0°F17.2°C
Winds Calm Calm 2.3 mph ESE3.7 kmh ESE - 0.1 mph 0.2 kmh
Wind Gusts -- 3.5 mph5.6 kmh - -
Humidity 91% 91% 88% 89%
Pressure 30.11 in1019.6 mb 30.15 in1021.0 mb 30.09 in1019.0 mb -
Precipitation - 0.13 in3.3 mm - -
Hour Temp Dew Point Humidity Winds Wind Gusts Pressure Precip Precip Rate Daily Precip Total
08:00 AM 66.0°F18.9°C 63.3°F17.4°C 91% Calm Calm -- 30.11 in1019.6 mb - 0.00 in0.0 mm 0.13 in3.3 mm
07:50 AM 65.9°F18.8°C 63.2°F17.3°C 91% Calm Calm 1.2 mph1.9 kmh 30.11 in1019.6 mb - 0.00 in0.0 mm 0.13 in3.3 mm
07:40 AM 65.8°F18.8°C 62.8°F17.1°C 90% Calm Calm -- 30.11 in1019.6 mb - 0.00 in0.0 mm 0.13 in3.3 mm
07:30 AM 65.8°F18.8°C 62.8°F17.1°C 90% Calm Calm -- 30.10 in1019.3 mb - 0.00 in0.0 mm 0.13 in3.3 mm
07:20 AM 65.7°F18.7°C 62.7°F17.1°C 90% Calm Calm -- 30.11 in1019.6 mb - 0.00 in0.0 mm 0.13 in3.3 mm
07:10 AM 65.6°F18.7°C 62.6°F17.0°C 90% Calm Calm -- 30.11 in1019.6 mb - 0.00 in0.0 mm 0.13 in3.3 mm
07:00 AM 65.5°F18.6°C 62.5°F16.9°C 90% Calm Calm -- 30.11 in1019.6 mb - 0.00 in0.0 mm 0.13 in3.3 mm
06:50 AM 65.4°F18.6°C 62.4°F16.9°C 90% Calm Calm -- 30.11 in1019.6 mb - 0.00 in0.0 mm 0.13 in3.3 mm
06:40 AM 65.4°F18.6°C 62.4°F16.9°C 90% Calm Calm -- 30.11 in1019.6 mb - 0.00 in0.0 mm 0.13 in3.3 mm
06:30 AM 65.5°F18.6°C 62.5°F16.9°C 90% Calm Calm -- 30.11 in1019.6 mb - 0.00 in0.0 mm 0.13 in3.3 mm
06:20 AM 65.6°F18.7°C 62.6°F17.0°C 90% Calm Calm -- 30.11 in1019.6 mb - 0.00 in0.0 mm 0.13 in3.3 mm
06:10 AM 65.7°F18.7°C 62.7°F17.1°C 90% Calm Calm -- 30.10 in1019.3 mb - 0.00 in0.0 mm 0.13 in3.3 mm
06:00 AM 65.8°F18.8°C 62.8°F17.1°C 90% Calm Calm -- 30.10 in1019.3 mb - 0.00 in0.0 mm 0.13 in3.3 mm
05:50 AM 65.8°F18.8°C 62.8°F17.1°C 90% Calm Calm -- 30.10 in1019.3 mb - 0.00 in0.0 mm 0.13 in3.3 mm
05:40 AM 65.9°F18.8°C 62.9°F17.2°C 90% Calm Calm -- 30.10 in1019.3 mb - 0.00 in0.0 mm 0.13 in3.3 mm
05:30 AM 66.0°F18.9°C 63.0°F17.2°C 90% Calm Calm -- 30.10 in1019.3 mb - 0.00 in0.0 mm 0.13 in3.3 mm
05:20 AM 66.1°F18.9°C 63.1°F17.3°C 90% Calm Calm -- 30.10 in1019.3 mb - 0.00 in0.0 mm 0.13 in3.3 mm
05:10 AM 66.1°F18.9°C 63.1°F17.3°C 90% Calm Calm -- 30.10 in1019.3 mb - 0.00 in0.0 mm 0.13 in3.3 mm
05:00 AM 66.1°F18.9°C 63.1°F17.3°C 90% Calm Calm -- 30.10 in1019.3 mb - 0.00 in0.0 mm 0.13 in3.3 mm
04:50 AM 66.1°F18.9°C 63.1°F17.3°C 90% Calm Calm -- 30.09 in1019.0 mb - 0.00 in0.0 mm 0.13 in3.3 mm
04:40 AM 66.1°F18.9°C 63.1°F17.3°C 90% Calm Calm -- 30.09 in1019.0 mb - 0.00 in0.0 mm 0.13 in3.3 mm
04:30 AM 66.1°F18.9°C 63.1°F17.3°C 90% Calm Calm -- 30.09 in1019.0 mb - 0.00 in0.0 mm 0.13 in3.3 mm
04:20 AM 66.1°F18.9°C 63.1°F17.3°C 90% Calm Calm -- 30.10 in1019.3 mb - 0.00 in0.0 mm 0.13 in3.3 mm
04:10 AM 66.1°F18.9°C 63.1°F17.3°C 90% Calm Calm -- 30.09 in1019.0 mb - 0.00 in0.0 mm 0.13 in3.3 mm
04:00 AM 66.2°F19.0°C 62.9°F17.2°C 89% Calm Calm -- 30.09 in1019.0 mb - 0.00 in0.0 mm 0.13 in3.3 mm
03:50 AM 66.2°F19.0°C 62.9°F17.2°C 89% Calm Calm -- 30.10 in1019.3 mb - 0.00 in0.0 mm 0.13 in3.3 mm
03:40 AM 66.2°F19.0°C 62.9°F17.2°C 89% Calm Calm -- 30.11 in1019.6 mb - 0.00 in0.0 mm 0.13 in3.3 mm
03:30 AM 66.2°F19.0°C 62.9°F17.2°C 89% Calm Calm -- 30.11 in1019.6 mb - 0.00 in0.0 mm 0.13 in3.3 mm
03:20 AM 66.2°F19.0°C 62.9°F17.2°C 89% Calm Calm -- 30.11 in1019.6 mb - 0.00 in0.0 mm 0.13 in3.3 mm
03:10 AM 66.3°F19.1°C 63.0°F17.2°C 89% Calm Calm -- 30.11 in1019.6 mb - 0.00 in0.0 mm 0.13 in3.3 mm
03:00 AM 66.3°F19.1°C 63.0°F17.2°C 89% Calm Calm -- 30.11 in1019.6 mb - 0.00 in0.0 mm 0.13 in3.3 mm
02:50 AM 66.4°F19.1°C 63.1°F17.3°C 89% Calm Calm -- 30.11 in1019.6 mb - 0.00 in0.0 mm 0.13 in3.3 mm
02:40 AM 66.4°F19.1°C 63.0°F17.2°C 89% Calm Calm -- 30.10 in1019.3 mb - 0.00 in0.0 mm 0.13 in3.3 mm
02:30 AM 66.5°F19.2°C 63.1°F17.3°C 89% Calm Calm -- 30.10 in1019.3 mb - 0.01 in0.3 mm 0.13 in3.3 mm
02:20 AM 66.5°F19.2°C 63.2°F17.3°C 89% 1.2 mph SW1.9 kmh SW 1.2 mph1.9 kmh 30.11 in1019.6 mb - 0.00 in0.0 mm 0.12 in3.0 mm
02:10 AM 66.5°F19.2°C 63.2°F17.3°C 89% Calm Calm -- 30.10 in1019.3 mb - 0.00 in0.0 mm 0.12 in3.0 mm
02:00 AM 66.6°F19.2°C 63.3°F17.4°C 89% Calm Calm -- 30.11 in1019.6 mb - 0.01 in0.3 mm 0.12 in3.0 mm
01:50 AM 66.6°F19.2°C 63.3°F17.4°C 89% Calm Calm -- 30.10 in1019.3 mb - 0.00 in0.0 mm 0.11 in2.8 mm
01:40 AM 66.7°F19.3°C 63.4°F17.4°C 89% 2.3 mph ESE3.7 kmh ESE 3.5 mph5.6 kmh 30.09 in1019.0 mb - 0.01 in0.3 mm 0.11 in2.8 mm
01:30 AM 66.7°F19.3°C 63.4°F17.4°C 89% Calm Calm -- 30.10 in1019.3 mb - 0.01 in0.3 mm 0.10 in2.5 mm
01:20 AM 66.6°F19.2°C 63.3°F17.4°C 89% Calm Calm -- 30.11 in1019.6 mb - 0.01 in0.3 mm 0.09 in2.3 mm
01:10 AM 66.5°F19.2°C 63.2°F17.3°C 89% Calm Calm 3.5 mph5.6 kmh 30.11 in1019.6 mb - 0.02 in0.5 mm 0.08 in2.0 mm
01:00 AM 66.6°F19.2°C 63.3°F17.4°C 89% Calm Calm 2.3 mph3.7 kmh 30.12 in1020.0 mb - 0.01 in0.3 mm 0.06 in1.5 mm
12:50 AM 66.8°F19.3°C 63.5°F17.5°C 89% 1.2 mph SE1.9 kmh SE 2.3 mph3.7 kmh 30.13 in1020.3 mb - 0.01 in0.3 mm 0.05 in1.3 mm
12:40 AM 66.9°F19.4°C 63.6°F17.6°C 89% Calm Calm -- 30.14 in1020.7 mb - 0.01 in0.3 mm 0.04 in1.0 mm
12:30 AM 67.0°F19.4°C 63.6°F17.6°C 89% Calm Calm -- 30.12 in1020.0 mb - 0.01 in0.3 mm 0.03 in0.8 mm
12:20 AM 66.9°F19.4°C 63.2°F17.3°C 88% Calm Calm -- 30.13 in1020.3 mb - 0.02 in0.5 mm 0.03 in0.8 mm
12:10 AM 67.0°F19.4°C 63.3°F17.4°C 88% Calm Calm -- 30.14 in1020.7 mb - 0.02 in0.5 mm 0.02 in0.5 mm
12:00 AM 66.9°F19.4°C 63.2°F17.3°C 88% Calm Calm -- 30.15 in1021.0 mb - 0.02 in0.5 mm 0.02 in0.5 mm